sensor_id;sensor_type;location;lat;lon;timestamp;pressure;altitude;pressure_sealevel;temperature;humidity
80851;BME280;70268;50.292;6.666;2023-05-29T00:00:06;96754.31;;;19.65;51.61
80851;BME280;70268;50.292;6.666;2023-05-29T00:02:39;96758.75;;;19.65;52.06
80851;BME280;70268;50.292;6.666;2023-05-29T00:05:11;96762.38;;;19.64;51.90
80851;BME280;70268;50.292;6.666;2023-05-29T00:07:41;96755.47;;;19.63;51.91
80851;BME280;70268;50.292;6.666;2023-05-29T00:10:11;96756.50;;;19.62;51.61
80851;BME280;70268;50.292;6.666;2023-05-29T00:12:40;96751.41;;;19.60;52.19
80851;BME280;70268;50.292;6.666;2023-05-29T00:15:09;96752.41;;;19.59;52.03
80851;BME280;70268;50.292;6.666;2023-05-29T00:17:39;96752.41;;;19.59;51.75
80851;BME280;70268;50.292;6.666;2023-05-29T00:20:09;96753.38;;;19.58;51.81
80851;BME280;70268;50.292;6.666;2023-05-29T00:22:39;96755.19;;;19.58;52.13
80851;BME280;70268;50.292;6.666;2023-05-29T00:25:10;96747.50;;;19.56;52.11
80851;BME280;70268;50.292;6.666;2023-05-29T00:27:39;96750.28;;;19.55;51.65
80851;BME280;70268;50.292;6.666;2023-05-29T00:30:08;96752.91;;;19.55;52.15
80851;BME280;70268;50.292;6.666;2023-05-29T00:32:37;96750.47;;;19.53;51.80
80851;BME280;70268;50.292;6.666;2023-05-29T00:35:07;96754.91;;;19.52;51.75
80851;BME280;70268;50.292;6.666;2023-05-29T00:37:36;96757.53;;;19.52;52.13
80851;BME280;70268;50.292;6.666;2023-05-29T00:40:06;96758.53;;;19.51;51.98
80851;BME280;70268;50.292;6.666;2023-05-29T00:42:37;96757.88;;;19.49;52.38
80851;BME280;70268;50.292;6.666;2023-05-29T00:45:07;96753.44;;;19.50;52.24
80851;BME280;70268;50.292;6.666;2023-05-29T00:47:36;96753.63;;;19.48;52.19
80851;BME280;70268;50.292;6.666;2023-05-29T00:50:06;96758.03;;;19.48;52.16
80851;BME280;70268;50.292;6.666;2023-05-29T00:52:35;96760.66;;;19.48;52.07
80851;BME280;70268;50.292;6.666;2023-05-29T00:55:04;96761.69;;;19.47;52.02
80851;BME280;70268;50.292;6.666;2023-05-29T00:57:34;96764.47;;;19.45;52.27
80851;BME280;70268;50.292;6.666;2023-05-29T01:00:06;96767.09;;;19.45;52.37
80851;BME280;70268;50.292;6.666;2023-05-29T01:02:38;96764.66;;;19.44;52.38
80851;BME280;70268;50.292;6.666;2023-05-29T01:05:08;96755.31;;;19.41;52.81
80851;BME280;70268;50.292;6.666;2023-05-29T01:07:38;96754.84;;;19.38;52.97
80851;BME280;70268;50.292;6.666;2023-05-29T01:10:08;96755.31;;;19.41;52.75
80851;BME280;70268;50.292;6.666;2023-05-29T01:12:41;96760.22;;;19.44;52.54
80851;BME280;70268;50.292;6.666;2023-05-29T01:15:24;96762.47;;;19.47;52.83
80851;BME280;70268;50.292;6.666;2023-05-29T01:18:10;96760.66;;;19.48;52.99
80851;BME280;70268;50.292;6.666;2023-05-29T01:20:43;96767.56;;;19.49;52.75
80851;BME280;70268;50.292;6.666;2023-05-29T01:29:24;96763.13;;;19.49;53.55
80851;BME280;70268;50.292;6.666;2023-05-29T01:31:54;96763.28;;;19.48;53.34
80851;BME280;70268;50.292;6.666;2023-05-29T01:34:24;96758.88;;;19.48;53.67
80851;BME280;70268;50.292;6.666;2023-05-29T01:36:53;96765.91;;;19.48;53.47
80851;BME280;70268;50.292;6.666;2023-05-29T01:39:22;96756.25;;;19.48;53.75
80851;BME280;70268;50.292;6.666;2023-05-29T01:41:52;96758.03;;;19.48;53.63
80851;BME280;70268;50.292;6.666;2023-05-29T01:44:24;96763.28;;;19.48;54.13
80851;BME280;70268;50.292;6.666;2023-05-29T01:46:54;96758.22;;;19.46;54.05
80851;BME280;70268;50.292;6.666;2023-05-29T01:49:24;96764.47;;;19.45;53.84
80851;BME280;70268;50.292;6.666;2023-05-29T01:51:53;96762.66;;;19.46;54.14
80851;BME280;70268;50.292;6.666;2023-05-29T01:54:23;96767.09;;;19.45;54.00
80851;BME280;70268;50.292;6.666;2023-05-29T01:56:52;96767.09;;;19.45;54.32
80851;BME280;70268;50.292;6.666;2023-05-29T01:59:22;96757.41;;;19.46;54.40
80851;BME280;70268;50.292;6.666;2023-05-29T02:01:53;96766.94;;;19.47;54.05
80851;BME280;70268;50.292;6.666;2023-05-29T02:04:22;96768.91;;;19.45;54.28
80851;BME280;70268;50.292;6.666;2023-05-29T02:06:51;96766.25;;;19.45;53.94
80851;BME280;70268;50.292;6.666;2023-05-29T02:09:21;96763.00;;;19.43;54.23
80851;BME280;70268;50.292;6.666;2023-05-29T02:11:50;96768.09;;;19.44;54.09
80851;BME280;70268;50.292;6.666;2023-05-29T02:14:19;96758.72;;;19.42;54.42
80851;BME280;70268;50.292;6.666;2023-05-29T02:16:48;96767.63;;;19.41;54.43
80851;BME280;70268;50.292;6.666;2023-05-29T02:19:18;96766.78;;;19.40;54.22
80851;BME280;70268;50.292;6.666;2023-05-29T02:21:47;96760.72;;;19.40;54.34
80851;BME280;70268;50.292;6.666;2023-05-29T02:24:16;96761.53;;;19.40;54.54
80851;BME280;70268;50.292;6.666;2023-05-29T02:26:47;96763.34;;;19.40;54.34
80851;BME280;70268;50.292;6.666;2023-05-29T02:29:17;96760.72;;;19.40;54.82
80851;BME280;70268;50.292;6.666;2023-05-29T02:31:46;96766.78;;;19.40;54.63
80851;BME280;70268;50.292;6.666;2023-05-29T02:34:14;96765.97;;;19.40;54.89
80851;BME280;70268;50.292;6.666;2023-05-29T02:36:45;96767.81;;;19.39;54.39
80851;BME280;70268;50.292;6.666;2023-05-29T02:39:13;96763.34;;;19.40;54.95
80851;BME280;70268;50.292;6.666;2023-05-29T02:41:42;96766.16;;;19.38;55.00
80851;BME280;70268;50.292;6.666;2023-05-29T02:44:11;96758.44;;;19.37;54.92
80851;BME280;70268;50.292;6.666;2023-05-29T02:46:40;96761.06;;;19.37;54.47
80851;BME280;70268;50.292;6.666;2023-05-29T02:49:09;96768.16;;;19.36;54.70
80851;BME280;70268;50.292;6.666;2023-05-29T02:51:37;96774.22;;;19.37;54.72
80851;BME280;70268;50.292;6.666;2023-05-29T02:54:08;96777.00;;;19.35;54.83
80851;BME280;70268;50.292;6.666;2023-05-29T02:56:40;96773.75;;;19.33;54.74
80851;BME280;70268;50.292;6.666;2023-05-29T02:59:09;96780.63;;;19.34;54.80
80851;BME280;70268;50.292;6.666;2023-05-29T03:01:37;96779.63;;;19.35;55.13
80851;BME280;70268;50.292;6.666;2023-05-29T03:04:06;96780.44;;;19.35;54.96
80851;BME280;70268;50.292;6.666;2023-05-29T03:06:36;96777.00;;;19.35;55.47
80851;BME280;70268;50.292;6.666;2023-05-29T03:09:07;96779.63;;;19.35;55.73
80851;BME280;70268;50.292;6.666;2023-05-29T03:11:36;96781.28;;;19.36;55.85
80851;BME280;70268;50.292;6.666;2023-05-29T03:14:09;96772.56;;;19.35;55.35
80851;BME280;70268;50.292;6.666;2023-05-29T03:16:37;96776.19;;;19.34;55.71
80851;BME280;70268;50.292;6.666;2023-05-29T03:19:07;96778.00;;;19.34;55.60
80851;BME280;70268;50.292;6.666;2023-05-29T03:21:36;96780.63;;;19.34;55.54
80851;BME280;70268;50.292;6.666;2023-05-29T03:24:07;96780.97;;;19.31;55.80
80851;BME280;70268;50.292;6.666;2023-05-29T03:26:39;96777.69;;;19.29;55.64
80851;BME280;70268;50.292;6.666;2023-05-29T03:29:09;96781.13;;;19.29;55.96
80851;BME280;70268;50.292;6.666;2023-05-29T03:31:38;96781.97;;;19.30;55.83
80851;BME280;70268;50.292;6.666;2023-05-29T03:34:07;96782.78;;;19.30;55.82
80851;BME280;70268;50.292;6.666;2023-05-29T03:36:40;96783.94;;;19.28;55.80
80851;BME280;70268;50.292;6.666;2023-05-29T03:39:11;96780.69;;;19.26;55.77
80851;BME280;70268;50.292;6.666;2023-05-29T03:41:40;96789.00;;;19.29;55.73
80851;BME280;70268;50.292;6.666;2023-05-29T03:44:09;96785.75;;;19.27;56.04
80851;BME280;70268;50.292;6.666;2023-05-29T03:46:38;96798.06;;;19.27;56.43
80851;BME280;70268;50.292;6.666;2023-05-29T03:49:07;96793.81;;;19.26;56.35
80851;BME280;70268;50.292;6.666;2023-05-29T03:51:36;96799.06;;;19.26;56.22
80851;BME280;70268;50.292;6.666;2023-05-29T03:54:05;96801.84;;;19.24;56.38
80851;BME280;70268;50.292;6.666;2023-05-29T03:56:35;96802.03;;;19.23;55.88
80851;BME280;70268;50.292;6.666;2023-05-29T03:59:04;96815.00;;;19.24;56.19
80851;BME280;70268;50.292;6.666;2023-05-29T04:01:33;96824.69;;;19.24;56.18
80851;BME280;70268;50.292;6.666;2023-05-29T04:04:02;96826.47;;;19.23;56.14
80851;BME280;70268;50.292;6.666;2023-05-29T04:06:31;96824.84;;;19.22;56.02
80851;BME280;70268;50.292;6.666;2023-05-29T04:09:00;96832.72;;;19.22;56.25
80851;BME280;70268;50.292;6.666;2023-05-29T04:11:29;96836.34;;;19.21;55.96
80851;BME280;70268;50.292;6.666;2023-05-29T04:14:02;96833.53;;;19.23;56.73
80851;BME280;70268;50.292;6.666;2023-05-29T04:16:32;96839.44;;;19.25;56.13
80851;BME280;70268;50.292;6.666;2023-05-29T04:19:01;96843.69;;;19.26;56.00
80851;BME280;70268;50.292;6.666;2023-05-29T04:21:32;96840.28;;;19.25;56.61
80851;BME280;70268;50.292;6.666;2023-05-29T04:24:01;96838.44;;;19.26;56.13
80851;BME280;70268;50.292;6.666;2023-05-29T04:26:30;96845.34;;;19.27;56.34
80851;BME280;70268;50.292;6.666;2023-05-29T04:29:00;96850.44;;;19.28;56.52
80851;BME280;70268;50.292;6.666;2023-05-29T04:31:31;96850.44;;;19.28;56.50
80851;BME280;70268;50.292;6.666;2023-05-29T04:34:00;96860.94;;;19.28;56.17
80851;BME280;70268;50.292;6.666;2023-05-29T04:36:32;96855.50;;;19.30;56.21
80851;BME280;70268;50.292;6.666;2023-05-29T04:39:07;96861.56;;;19.30;56.32
80851;BME280;70268;50.292;6.666;2023-05-29T04:41:37;96855.50;;;19.30;56.20
80851;BME280;70268;50.292;6.666;2023-05-29T04:44:11;96860.59;;;19.31;56.34
80851;BME280;70268;50.292;6.666;2023-05-29T04:46:51;96850.09;;;19.31;56.59
80851;BME280;70268;50.292;6.666;2023-05-29T04:49:20;96856.97;;;19.32;56.25
80851;BME280;70268;50.292;6.666;2023-05-29T04:51:49;96868.31;;;19.33;56.51
80851;BME280;70268;50.292;6.666;2023-05-29T04:54:22;96877.63;;;19.35;56.48
80851;BME280;70268;50.292;6.666;2023-05-29T04:56:54;96868.75;;;19.37;56.44
80851;BME280;70268;50.292;6.666;2023-05-29T04:59:27;96864.31;;;19.37;56.09
80851;BME280;70268;50.292;6.666;2023-05-29T05:01:58;96873.03;;;19.38;56.46
80851;BME280;70268;50.292;6.666;2023-05-29T05:04:27;96875.50;;;19.39;56.02
80851;BME280;70268;50.292;6.666;2023-05-29T05:06:57;96874.47;;;19.40;56.09
80851;BME280;70268;50.292;6.666;2023-05-29T05:09:26;96880.56;;;19.41;55.94
80851;BME280;70268;50.292;6.666;2023-05-29T05:11:55;96883.84;;;19.43;56.14
80851;BME280;70268;50.292;6.666;2023-05-29T05:14:24;96882.84;;;19.44;56.44
80851;BME280;70268;50.292;6.666;2023-05-29T05:16:57;96873.78;;;19.46;55.98
80851;BME280;70268;50.292;6.666;2023-05-29T05:19:26;96873.78;;;19.46;56.30
80851;BME280;70268;50.292;6.666;2023-05-29T05:21:55;96875.28;;;19.49;56.32
80851;BME280;70268;50.292;6.666;2023-05-29T05:24:24;96870.81;;;19.49;56.32
80851;BME280;70268;50.292;6.666;2023-05-29T05:26:52;96873.47;;;19.49;56.12
80851;BME280;70268;50.292;6.666;2023-05-29T05:29:22;96873.78;;;19.55;56.00
80851;BME280;70268;50.292;6.666;2023-05-29T05:31:53;96877.69;;;19.59;56.21
80851;BME280;70268;50.292;6.666;2023-05-29T05:34:24;96876.53;;;19.61;56.06
80851;BME280;70268;50.292;6.666;2023-05-29T05:36:53;96877.00;;;19.65;56.04
80851;BME280;70268;50.292;6.666;2023-05-29T05:39:23;96879.81;;;19.63;56.52
80851;BME280;70268;50.292;6.666;2023-05-29T05:41:52;96880.63;;;19.64;56.50
80851;BME280;70268;50.292;6.666;2023-05-29T05:44:42;96871.41;;;19.68;56.58
80851;BME280;70268;50.292;6.666;2023-05-29T05:47:13;96875.47;;;19.70;56.02
80851;BME280;70268;50.292;6.666;2023-05-29T05:49:43;96877.94;;;19.72;56.41
80851;BME280;70268;50.292;6.666;2023-05-29T05:52:12;96879.59;;;19.73;56.25
80851;BME280;70268;50.292;6.666;2023-05-29T05:54:41;96875.97;;;19.74;56.30
80851;BME280;70268;50.292;6.666;2023-05-29T05:57:12;96880.22;;;19.75;56.29
80851;BME280;70268;50.292;6.666;2023-05-29T05:59:40;96879.41;;;19.75;56.29
80851;BME280;70268;50.292;6.666;2023-05-29T06:02:09;96887.28;;;19.75;55.98
80851;BME280;70268;50.292;6.666;2023-05-29T06:04:38;96884.50;;;19.76;55.64
80851;BME280;70268;50.292;6.666;2023-05-29T06:07:09;96882.19;;;19.81;55.52
80851;BME280;70268;50.292;6.666;2023-05-29T06:09:37;96887.13;;;19.84;55.73
80851;BME280;70268;50.292;6.666;2023-05-29T06:12:07;96876.59;;;19.84;55.64
80851;BME280;70268;50.292;6.666;2023-05-29T06:14:42;96875.41;;;19.87;55.93
80851;BME280;70268;50.292;6.666;2023-05-29T06:17:11;96883.78;;;19.91;55.72
80851;BME280;70268;50.292;6.666;2023-05-29T06:19:40;96898.38;;;19.93;56.04
80851;BME280;70268;50.292;6.666;2023-05-29T06:22:10;96902.66;;;19.94;55.97
80851;BME280;70268;50.292;6.666;2023-05-29T06:24:39;96898.38;;;19.93;55.62
80851;BME280;70268;50.292;6.666;2023-05-29T06:27:08;96900.19;;;19.93;56.05
80851;BME280;70268;50.292;6.666;2023-05-29T06:29:37;96896.41;;;19.95;55.66
80851;BME280;70268;50.292;6.666;2023-05-29T06:32:07;96896.25;;;19.97;56.01
80851;BME280;70268;50.292;6.666;2023-05-29T06:34:35;96905.56;;;19.99;55.47
80851;BME280;70268;50.292;6.666;2023-05-29T06:37:04;96897.22;;;19.96;55.81
80851;BME280;70268;50.292;6.666;2023-05-29T06:39:34;96902.31;;;19.97;55.68
80851;BME280;70268;50.292;6.666;2023-05-29T06:42:03;96913.63;;;19.98;55.69
80851;BME280;70268;50.292;6.666;2023-05-29T06:44:41;96903.28;;;19.96;55.95
80851;BME280;70268;50.292;6.666;2023-05-29T06:47:10;96907.41;;;19.99;55.79
80851;BME280;70268;50.292;6.666;2023-05-29T06:49:39;96907.56;;;19.97;56.03
80851;BME280;70268;50.292;6.666;2023-05-29T06:52:07;96910.03;;;19.99;56.12
80851;BME280;70268;50.292;6.666;2023-05-29T06:55:05;96908.38;;;19.98;55.76
80851;BME280;70268;50.292;6.666;2023-05-29T06:57:34;96907.22;;;20.00;55.71
80851;BME280;70268;50.292;6.666;2023-05-29T07:00:03;96913.47;;;19.99;55.98
80851;BME280;70268;50.292;6.666;2023-05-29T07:02:35;96916.94;;;20.00;55.98
80851;BME280;70268;50.292;6.666;2023-05-29T07:05:04;96915.75;;;20.02;55.68
80851;BME280;70268;50.292;6.666;2023-05-29T07:07:33;96901.97;;;20.00;55.92
80851;BME280;70268;50.292;6.666;2023-05-29T07:10:04;96906.06;;;20.03;55.83
80851;BME280;70268;50.292;6.666;2023-05-29T07:12:33;96905.03;;;20.04;55.62
80851;BME280;70268;50.292;6.666;2023-05-29T07:15:02;96907.69;;;20.04;55.91
80851;BME280;70268;50.292;6.666;2023-05-29T07:17:33;96913.28;;;20.01;55.77
80851;BME280;70268;50.292;6.666;2023-05-29T07:20:14;96901.97;;;20.00;55.50
80851;BME280;70268;50.292;6.666;2023-05-29T07:22:43;96907.03;;;20.02;54.95
80851;BME280;70268;50.292;6.666;2023-05-29T07:25:14;96910.47;;;20.02;54.79
80851;BME280;70268;50.292;6.666;2023-05-29T07:27:43;96902.41;;;20.04;54.78
80851;BME280;70268;50.292;6.666;2023-05-29T07:30:12;96908.50;;;20.04;54.64
80851;BME280;70268;50.292;6.666;2023-05-29T07:32:43;96900.81;;;20.03;54.15
80851;BME280;70268;50.292;6.666;2023-05-29T07:35:12;96899.97;;;20.02;54.25
80851;BME280;70268;50.292;6.666;2023-05-29T07:37:42;96904.41;;;20.02;54.10
80851;BME280;70268;50.292;6.666;2023-05-29T07:40:15;96908.88;;;20.01;54.07
80851;BME280;70268;50.292;6.666;2023-05-29T07:42:59;96911.50;;;20.01;53.98
80851;BME280;70268;50.292;6.666;2023-05-29T07:45:40;96906.88;;;20.03;53.68
80851;BME280;70268;50.292;6.666;2023-05-29T07:48:09;96906.53;;;20.06;53.90
80851;BME280;70268;50.292;6.666;2023-05-29T07:50:38;96901.91;;;20.09;53.53
80851;BME280;70268;50.292;6.666;2023-05-29T07:53:07;96908.16;;;20.08;53.83
80851;BME280;70268;50.292;6.666;2023-05-29T07:55:39;96899.25;;;20.09;53.54
80851;BME280;70268;50.292;6.666;2023-05-29T07:58:08;96894.84;;;20.09;53.54
80851;BME280;70268;50.292;6.666;2023-05-29T08:00:40;96896.47;;;20.10;53.42
80851;BME280;70268;50.292;6.666;2023-05-29T08:03:09;96900.56;;;20.13;53.40
80851;BME280;70268;50.292;6.666;2023-05-29T08:05:58;96896.84;;;20.30;53.90
80851;BME280;70268;50.292;6.666;2023-05-29T08:08:28;96901.66;;;20.41;53.68
80851;BME280;70268;50.292;6.666;2023-05-29T08:10:59;96902.41;;;20.50;54.08
80851;BME280;70268;50.292;6.666;2023-05-29T08:13:29;96901.69;;;20.56;53.94
80851;BME280;70268;50.292;6.666;2023-05-29T08:15:58;96900.00;;;20.64;53.83
80851;BME280;70268;50.292;6.666;2023-05-29T08:18:30;96903.94;;;20.68;53.78
80851;BME280;70268;50.292;6.666;2023-05-29T08:20:59;96903.94;;;20.68;53.73
80851;BME280;70268;50.292;6.666;2023-05-29T08:23:28;96906.31;;;20.77;53.91
80851;BME280;70268;50.292;6.666;2023-05-29T08:26:03;96900.88;;;20.79;54.03
80851;BME280;70268;50.292;6.666;2023-05-29T08:28:31;96897.53;;;20.85;53.56
80851;BME280;70268;50.292;6.666;2023-05-29T08:31:00;96901.44;;;20.89;53.67
80851;BME280;70268;50.292;6.666;2023-05-29T08:33:29;96896.72;;;20.85;53.42
80851;BME280;70268;50.292;6.666;2023-05-29T08:35:58;96890.34;;;20.79;53.19
80851;BME280;70268;50.292;6.666;2023-05-29T08:38:27;96893.97;;;20.78;53.18
80851;BME280;70268;50.292;6.666;2023-05-29T08:40:57;96888.69;;;20.78;53.17
80851;BME280;70268;50.292;6.666;2023-05-29T08:43:30;96893.97;;;20.78;52.92
80851;BME280;70268;50.292;6.666;2023-05-29T08:46:01;96892.34;;;20.77;53.08
80851;BME280;70268;50.292;6.666;2023-05-29T08:48:31;96894.97;;;20.77;52.99
80851;BME280;70268;50.292;6.666;2023-05-29T08:51:02;96897.44;;;20.79;52.68
80851;BME280;70268;50.292;6.666;2023-05-29T08:53:32;96905.66;;;20.75;53.12
80851;BME280;70268;50.292;6.666;2023-05-29T08:56:02;96916.84;;;20.77;52.72
80851;BME280;70268;50.292;6.666;2023-05-29T08:58:33;96914.22;;;20.77;52.70
80851;BME280;70268;50.292;6.666;2023-05-29T09:01:02;96915.88;;;20.79;52.60
80851;BME280;70268;50.292;6.666;2023-05-29T09:03:31;96918.31;;;20.80;52.41
80851;BME280;70268;50.292;6.666;2023-05-29T09:06:00;96904.13;;;20.81;52.46
80851;BME280;70268;50.292;6.666;2023-05-29T09:08:30;96916.31;;;20.82;52.57
80851;BME280;70268;50.292;6.666;2023-05-29T09:11:00;96911.22;;;20.81;52.35
80851;BME280;70268;50.292;6.666;2023-05-29T09:13:29;96920.59;;;20.83;52.29
80851;BME280;70268;50.292;6.666;2023-05-29T09:15:59;96918.75;;;20.84;52.20
80851;BME280;70268;50.292;6.666;2023-05-29T09:18:31;96921.41;;;20.84;52.38
80851;BME280;70268;50.292;6.666;2023-05-29T09:20:59;96915.31;;;20.83;52.19
80851;BME280;70268;50.292;6.666;2023-05-29T09:23:35;96914.31;;;20.84;52.29
80851;BME280;70268;50.292;6.666;2023-05-29T09:26:04;96915.78;;;20.87;52.33
80851;BME280;70268;50.292;6.666;2023-05-29T09:28:33;96914.97;;;20.86;52.19
80851;BME280;70268;50.292;6.666;2023-05-29T09:31:13;96917.41;;;20.88;52.15
80851;BME280;70268;50.292;6.666;2023-05-29T09:33:47;96921.03;;;20.87;52.48
80851;BME280;70268;50.292;6.666;2023-05-29T09:36:19;96913.31;;;20.85;52.08
80851;BME280;70268;50.292;6.666;2023-05-29T09:38:49;96914.97;;;20.86;52.51
80851;BME280;70268;50.292;6.666;2023-05-29T09:41:25;96912.34;;;20.86;52.25
80851;BME280;70268;50.292;6.666;2023-05-29T09:43:55;96913.75;;;20.74;51.93
80851;BME280;70268;50.292;6.666;2023-05-29T09:46:25;96916.09;;;20.69;50.78
80851;BME280;70268;50.292;6.666;2023-05-29T09:49:01;96914.44;;;20.68;51.24
80851;BME280;70268;50.292;6.666;2023-05-29T09:51:30;96921.38;;;20.69;51.04
80851;BME280;70268;50.292;6.666;2023-05-29T09:54:12;96921.00;;;20.72;50.76
80851;BME280;70268;50.292;6.666;2023-05-29T09:56:42;96919.53;;;20.69;50.48
80851;BME280;70268;50.292;6.666;2023-05-29T09:59:11;96924.50;;;20.64;50.58
80851;BME280;70268;50.292;6.666;2023-05-29T10:01:43;96931.09;;;20.60;50.41
80851;BME280;70268;50.292;6.666;2023-05-29T10:04:12;96928.81;;;20.57;50.43
80851;BME280;70268;50.292;6.666;2023-05-29T10:06:44;96922.94;;;20.55;50.43
80851;BME280;70268;50.292;6.666;2023-05-29T10:09:16;96915.41;;;20.52;50.51
80851;BME280;70268;50.292;6.666;2023-05-29T10:11:47;96922.66;;;20.50;50.28
80851;BME280;70268;50.292;6.666;2023-05-29T10:14:18;96922.00;;;20.48;50.77
80851;BME280;70268;50.292;6.666;2023-05-29T10:16:49;96930.25;;;20.45;50.55
80851;BME280;70268;50.292;6.666;2023-05-29T10:19:25;96926.50;;;20.39;49.65
80851;BME280;70268;50.292;6.666;2023-05-29T10:21:55;96921.47;;;20.52;50.17
80851;BME280;70268;50.292;6.666;2023-05-29T10:24:25;96928.91;;;20.72;50.10
80851;BME280;70268;50.292;6.666;2023-05-29T10:26:54;96935.66;;;20.89;49.99
80851;BME280;70268;50.292;6.666;2023-05-29T10:29:28;96936.47;;;20.90;49.47
80851;BME280;70268;50.292;6.666;2023-05-29T10:32:07;96925.66;;;21.00;49.37
80851;BME280;70268;50.292;6.666;2023-05-29T10:34:44;96928.50;;;21.13;49.34
80851;BME280;70268;50.292;6.666;2023-05-29T10:37:32;96929.41;;;21.20;49.43
80851;BME280;70268;50.292;6.666;2023-05-29T10:40:06;96934.16;;;21.25;49.28
80851;BME280;70268;50.292;6.666;2023-05-29T10:42:45;96934.03;;;21.33;49.49
80851;BME280;70268;50.292;6.666;2023-05-29T10:45:47;96930.84;;;21.38;49.34
80851;BME280;70268;50.292;6.666;2023-05-29T10:48:37;96941.88;;;21.41;49.59
80851;BME280;70268;50.292;6.666;2023-05-29T10:51:06;96933.78;;;21.43;49.70
80851;BME280;70268;50.292;6.666;2023-05-29T10:53:35;96942.97;;;21.47;49.57
80851;BME280;70268;50.292;6.666;2023-05-29T10:56:08;96936.34;;;21.51;49.67
80851;BME280;70268;50.292;6.666;2023-05-29T10:58:43;96939.63;;;21.53;49.56
80851;BME280;70268;50.292;6.666;2023-05-29T11:01:12;96930.34;;;21.57;49.79
80851;BME280;70268;50.292;6.666;2023-05-29T11:03:42;96937.06;;;21.60;49.92
80851;BME280;70268;50.292;6.666;2023-05-29T11:06:18;96933.69;;;21.66;49.82
80851;BME280;70268;50.292;6.666;2023-05-29T11:08:47;96940.78;;;21.65;49.88
80851;BME280;70268;50.292;6.666;2023-05-29T11:11:29;96947.06;;;21.64;49.95
80851;BME280;70268;50.292;6.666;2023-05-29T11:14:01;96944.22;;;21.66;49.82
80851;BME280;70268;50.292;6.666;2023-05-29T11:16:39;96936.94;;;21.68;50.37
80851;BME280;70268;50.292;6.666;2023-05-29T11:19:09;96940.44;;;21.69;50.31
80851;BME280;70268;50.292;6.666;2023-05-29T11:21:56;96932.69;;;21.67;50.24
80851;BME280;70268;50.292;6.666;2023-05-29T11:24:29;96929.03;;;21.68;50.42
80851;BME280;70268;50.292;6.666;2023-05-29T11:26:58;96929.03;;;21.68;50.45
80851;BME280;70268;50.292;6.666;2023-05-29T11:29:35;96937.78;;;21.69;50.87
80851;BME280;70268;50.292;6.666;2023-05-29T11:32:05;96939.25;;;21.71;50.79
80851;BME280;70268;50.292;6.666;2023-05-29T11:34:40;96930.50;;;21.71;50.54
80851;BME280;70268;50.292;6.666;2023-05-29T11:37:11;96932.50;;;21.69;50.91
80851;BME280;70268;50.292;6.666;2023-05-29T11:39:40;96929.13;;;21.75;50.81
80851;BME280;70268;50.292;6.666;2023-05-29T11:42:11;96926.50;;;21.75;50.85
80851;BME280;70268;50.292;6.666;2023-05-29T11:44:39;96938.88;;;21.74;50.77
80851;BME280;70268;50.292;6.666;2023-05-29T11:47:08;96928.34;;;21.74;50.64
80851;BME280;70268;50.292;6.666;2023-05-29T11:49:39;96928.34;;;21.74;50.67
80851;BME280;70268;50.292;6.666;2023-05-29T11:52:08;96928.34;;;21.74;50.89
80851;BME280;70268;50.292;6.666;2023-05-29T11:54:43;96923.06;;;21.74;50.65
80851;BME280;70268;50.292;6.666;2023-05-29T11:57:19;96922.22;;;21.74;51.02
80851;BME280;70268;50.292;6.666;2023-05-29T11:59:49;96917.13;;;21.72;51.03
80851;BME280;70268;50.292;6.666;2023-05-29T12:02:20;96920.78;;;21.71;50.96
80851;BME280;70268;50.292;6.666;2023-05-29T12:05:01;96929.31;;;21.73;50.91
80851;BME280;70268;50.292;6.666;2023-05-29T12:07:30;96922.69;;;21.77;51.26
80851;BME280;70268;50.292;6.666;2023-05-29T12:10:08;96924.31;;;21.78;51.24
80851;BME280;70268;50.292;6.666;2023-05-29T12:12:37;96920.53;;;21.51;50.52
80851;BME280;70268;50.292;6.666;2023-05-29T12:15:08;96916.72;;;21.54;49.65
80851;BME280;70268;50.292;6.666;2023-05-29T12:17:37;96920.88;;;21.48;49.65
80851;BME280;70268;50.292;6.666;2023-05-29T12:20:08;96923.09;;;21.59;49.49
80851;BME280;70268;50.292;6.666;2023-05-29T12:22:40;96926.88;;;21.72;49.58
80851;BME280;70268;50.292;6.666;2023-05-29T12:25:10;96925.94;;;21.79;49.50
80851;BME280;70268;50.292;6.666;2023-05-29T12:27:41;96927.66;;;21.87;49.53
80851;BME280;70268;50.292;6.666;2023-05-29T12:30:11;96920.19;;;21.91;49.44
80851;BME280;70268;50.292;6.666;2023-05-29T12:32:54;96922.25;;;21.95;49.69
80851;BME280;70268;50.292;6.666;2023-05-29T12:35:27;96925.53;;;21.97;49.59
80851;BME280;70268;50.292;6.666;2023-05-29T12:37:57;96928.63;;;22.01;49.54
80851;BME280;70268;50.292;6.666;2023-05-29T12:40:27;96937.78;;;22.05;49.63
80851;BME280;70268;50.292;6.666;2023-05-29T12:42:57;96934.16;;;22.06;49.68
80851;BME280;70268;50.292;6.666;2023-05-29T12:45:29;96930.31;;;22.09;49.80
80851;BME280;70268;50.292;6.666;2023-05-29T12:47:59;96930.13;;;22.10;49.67
80851;BME280;70268;50.292;6.666;2023-05-29T12:50:32;96935.91;;;22.21;49.75
80851;BME280;70268;50.292;6.666;2023-05-29T12:53:02;96927.19;;;22.20;49.64
80851;BME280;70268;50.292;6.666;2023-05-29T12:55:33;96939.56;;;22.19;49.71
80851;BME280;70268;50.292;6.666;2023-05-29T12:58:05;96931.44;;;22.21;49.97
80851;BME280;70268;50.292;6.666;2023-05-29T13:00:34;96935.34;;;22.25;49.85
80851;BME280;70268;50.292;6.666;2023-05-29T13:03:03;96929.34;;;22.31;49.89
80851;BME280;70268;50.292;6.666;2023-05-29T13:05:35;96924.22;;;22.30;49.85
80851;BME280;70268;50.292;6.666;2023-05-29T13:08:03;96926.06;;;22.29;50.02
80851;BME280;70268;50.292;6.666;2023-05-29T13:10:35;96923.44;;;22.29;49.98
80851;BME280;70268;50.292;6.666;2023-05-29T13:13:03;96925.91;;;22.31;50.02
80851;BME280;70268;50.292;6.666;2023-05-29T13:15:32;96925.72;;;22.32;50.25
80851;BME280;70268;50.292;6.666;2023-05-29T13:18:01;96925.72;;;22.32;50.18
80851;BME280;70268;50.292;6.666;2023-05-29T13:20:30;96927.97;;;22.35;50.17
80851;BME280;70268;50.292;6.666;2023-05-29T13:23:01;96938.97;;;22.39;50.27
80851;BME280;70268;50.292;6.666;2023-05-29T13:25:29;96931.63;;;21.98;49.88